Latest Coastal Weather Observations for Cape Byron

IDN60701

Issued at 6:51 pm EST Saturday 13 April 2024 (issued every 10 minutes, with the page automatically refreshed every 10 minutes)

About coastal observations | Map of coastal stations | Coastal observations for NSW | Marine services | Other Formats
Station Details ID: 058216 Name: CAPE BYRON AWS Lat: -28.64 Lon: 153.64 Height: 95.0 m
Data from the previous 72 hours. | See also: Recent months at Cape Byron
Date/Time
EST
Wind Sea
Height
m
Swell Vis
km
Cloud Weather Temp
°C
Press
MSL
hPa
Rain since
9am
mm
Dir  Spd
kts
Gust
kts
Height
m
Period
s
Dir
13/06:30pm NNE 9 13 - - - - - - - 22.3 1021.3 0.0
13/06:00pm NE 10 14 - - - - - - - 22.2 1020.9 0.0
13/05:30pm NE 10 14 - - - - - - - 22.3 1020.4 0.0
13/05:00pm NE 10 15 - - - - - - - 22.6 1020.0 0.0
13/04:30pm NE 12 16 - - - - - - - 23.1 1019.7 0.0
13/04:00pm NE 12 16 - - - - - - - 23.9 1019.7 0.0
13/03:30pm NE 10 13 - - - - - - - 24.3 1019.7 0.0
13/03:00pm NE 12 15 - - - - - - - 23.7 1019.9 0.0
13/02:30pm NE 11 15 - - - - - - - 24.9 1020.0 0.0
13/02:00pm ENE 10 14 - - - - - - - 25.8 1020.1 0.0
13/01:30pm NE 11 13 - - - - - - - 25.1 1020.5 0.0
13/01:00pm ENE 9 11 - - - - - - - 25.6 1020.6 0.0
13/12:30pm ENE 9 11 - - - - - - - 25.2 1021.0 0.0
13/12:00pm E 7 9 - - - - - - - 24.4 1021.5 0.0
13/11:30am E 7 9 - - - - - - - 24.0 1021.9 0.0
13/11:00am E 9 11 - - - - - - - 24.4 1022.2 0.0
13/10:30am E 8 10 - - - - - - - 23.5 1022.5 0.0
13/10:00am SSE 6 9 - - - - - - - 23.1 1022.5 0.0
13/09:30am S 6 7 - - - - - - - 21.8 1022.5 0.0
13/09:00am S 6 7 - - - - - - - 21.3 1022.5 0.0
13/08:30am SW 4 7 - - - - - - - 20.8 1022.4 0.0
13/08:00am WSW 6 9 - - - - - - - 19.8 1022.1 0.0
13/07:30am SW 8 10 - - - - - - - 18.9 1021.7 0.0
13/07:00am WSW 9 12 - - - - - - - 18.3 1021.4 0.0
13/06:30am WSW 12 15 - - - - - - - 18.3 1021.2 0.0
13/06:00am WSW 11 14 - - - - - - - 17.9 1020.9 0.0
13/05:30am WSW 12 15 - - - - - - - 17.8 1020.6 0.0
13/05:00am SW 11 14 - - - - - - - 17.6 1020.5 0.0
13/04:30am SW 11 13 - - - - - - - 17.6 1020.0 0.0
13/04:00am SW 8 11 - - - - - - - 17.3 1020.1 0.0
13/03:30am SW 13 16 - - - - - - - 17.7 1019.7 0.0
13/03:00am SW 13 15 - - - - - - - 17.8 1019.4 0.0
13/02:30am SW 11 14 - - - - - - - 18.1 1019.4 0.0
13/02:00am SW 10 11 - - - - - - - 18.3 1019.6 0.0
13/01:30am SW 10 12 - - - - - - - 18.9 1019.6 0.0
13/01:00am WSW 11 14 - - - - - - - 19.2 1019.9 0.0
13/12:30am WSW 11 13 - - - - - - - 19.3 1020.0 0.0
13/12:00am SW 8 10 - - - - - - - 19.5 1020.1 0.0
 
Date/Time
EST
Wind Sea
Height
m
Swell Vis
km
Cloud Weather Temp
°C
Press
MSL
hPa
Rain since
9am
mm
Dir  Spd
kts
Gust
kts
Height
m
Period
s
Dir
12/11:30pm SW 8 10 - - - - - - - 19.5 1020.6 0.0
12/11:00pm SW 9 12 - - - - - - - 19.7 1020.6 0.0
12/10:30pm WSW 11 13 - - - - - - - 19.8 1020.7 0.0
12/10:00pm SW 7 10 - - - - - - - 19.8 1020.6 0.0
12/09:30pm S 5 7 - - - - - - - 20.7 1020.8 0.0
12/09:00pm ESE 8 10 - - - - - - - 21.7 1020.6 0.0
12/08:30pm ESE 10 13 - - - - - - - 21.5 1020.3 0.0
12/08:00pm ESE 10 14 - - - - - - - 21.6 1019.9 0.0
12/07:30pm E 12 15 - - - - - - - 21.3 1019.5 0.0
12/07:00pm ESE 14 16 - - - - - - - 21.4 1019.4 0.0
12/06:30pm SE 10 14 - - - - - - - 21.5 1019.4 0.0
12/06:00pm SSE 12 16 - - - - - - - 21.6 1019.1 0.0
12/05:30pm SSE 12 17 - - - - - - - 21.6 1018.9 0.0
12/05:00pm SSE 12 16 - - - - - - - 21.8 1018.7 0.0
12/04:30pm S 14 19 - - - - - - - 21.7 1018.5 0.0
12/04:00pm S 15 19 - - - - - - - 21.8 1018.4 0.0
12/03:30pm S 16 19 - - - - - - - 21.8 1018.3 0.0
12/03:00pm S 17 20 - - - - - - - 22.1 1018.3 0.0
12/02:30pm S 17 20 - - - - - - - 22.2 1018.5 0.0
12/02:00pm S 17 19 - - - - - - - 21.9 1018.7 0.0
12/01:30pm S 18 21 - - - - - - - 21.7 1018.7 0.0
12/01:00pm S 17 22 - - - - - - - 22.1 1018.9 0.0
12/12:30pm S 17 21 - - - - - - - 22.2 1019.1 0.0
12/12:00pm S 14 18 - - - - - - - 22.6 1019.5 0.0
12/11:30am S 18 21 - - - - - - - 22.3 1019.9 0.0
12/11:00am SSW 13 20 - - - - - - - 21.9 1020.1 0.0
12/10:30am SW 15 21 - - - - - - - 21.8 1020.4 0.0
12/10:00am SW 14 21 - - - - - - - 20.8 1020.8 0.0
12/09:30am SW 15 20 - - - - - - - 19.9 1020.7 0.0
12/09:00am SW 15 19 - - - - - - - 19.2 1020.5 0.0
12/08:30am SW 17 23 - - - - - - - 19.0 1020.0 0.0
12/08:00am SW 17 22 - - - - - - - 18.2 1019.7 0.0
12/07:30am SW 18 24 - - - - - - - 17.8 1019.8 0.0
12/07:00am SW 17 23 - - - - - - - 17.5 1019.4 0.0
12/06:30am SW 17 22 - - - - - - - 17.4 1019.0 0.0
12/06:00am SW 18 23 - - - - - - - 17.2 1018.6 0.0
12/05:30am SW 18 24 - - - - - - - 17.1 1018.5 0.0
12/05:00am SW 18 23 - - - - - - - 17.1 1018.4 0.0
12/04:30am SW 16 20 - - - - - - - 17.2 1018.0 0.0
12/04:00am SW 17 22 - - - - - - - 17.3 1018.0 0.0
12/03:30am SW 17 23 - - - - - - - 17.4 1018.1 0.0
12/03:00am SW 15 18 - - - - - - - 17.3 1017.9 0.0
12/02:30am SW 14 17 - - - - - - - 17.8 1018.0 0.0
12/02:00am SW 13 16 - - - - - - - 19.1 1018.1 0.0
12/01:30am S 19 25 - - - - - - - 21.7 1018.4 0.0
12/01:00am S 22 26 - - - - - - - 21.6 1018.5 0.0
12/12:30am S 23 29 - - - - - - - 21.2 1018.6 0.0
12/12:19am S 19 30 - - - - - - - 21.7 1018.7 0.0
12/12:00am S 21 25 - - - - - - - 21.6 1018.7 0.0
 
Date/Time
EST
Wind Sea
Height
m
Swell Vis
km
Cloud Weather Temp
°C
Press
MSL
hPa
Rain since
9am
mm
Dir  Spd
kts
Gust
kts
Height
m
Period
s
Dir
11/11:30pm S 22 27 - - - - - - - 21.5 1018.7 0.0
11/11:00pm SSE 21 28 - - - - - - - 21.4 1018.9 0.0
11/10:30pm S 23 28 - - - - - - - 22.1 1018.9 0.0
11/10:00pm S 22 27 - - - - - - - 21.8 1019.1 0.0
11/09:30pm S 23 27 - - - - - - - 21.9 1019.1 0.0
11/09:00pm S 21 27 - - - - - - - 22.2 1019.1 0.0
11/08:30pm S 21 27 - - - - - - - 22.1 1019.0 0.0
11/08:00pm S 21 26 - - - - - - - 22.0 1018.9 0.0
11/07:30pm S 21 25 - - - - - - - 22.0 1018.7 0.0
11/07:00pm S 20 23 - - - - - - - 22.0 1018.6 0.0
11/06:30pm S 21 26 - - - - - - - 22.0 1018.4 0.0
11/06:00pm S 23 27 - - - - - - - 22.0 1017.9 0.0
11/05:30pm S 25 30 - - - - - - - 21.9 1017.6 0.0
11/05:00pm S 24 28 - - - - - - - 22.0 1017.3 0.0
11/04:30pm SSW 23 29 - - - - - - - 22.0 1016.9 0.0
11/04:00pm S 22 25 - - - - - - - 21.9 1016.8 0.0
11/03:30pm S 18 24 - - - - - - - 22.0 1016.7 0.0
11/03:00pm S 17 24 - - - - - - - 21.7 1016.8 0.0
11/02:30pm SSW 15 21 - - - - - - - 21.9 1016.6 0.0
11/02:00pm SSW 20 25 - - - - - - - 21.9 1016.5 0.0
11/01:30pm S 19 24 - - - - - - - 22.1 1016.6 0.0
11/01:00pm S 19 24 - - - - - - - 22.0 1016.7 0.0
11/12:30pm S 20 24 - - - - - - - 21.9 1016.8 0.0
11/12:00pm SSW 16 21 - - - - - - - 21.9 1017.1 0.0
11/11:30am SSW 13 17 - - - - - - - 22.3 1017.4 0.0
11/11:00am SSW 13 18 - - - - - - - 21.6 1017.7 0.0
11/10:30am SSW 14 20 - - - - - - - 21.0 1018.0 0.0
11/10:00am SSW 15 20 - - - - - - - 20.7 1017.9 0.0
11/09:30am SW 13 20 - - - - - - - 20.1 1017.9 0.0
11/09:00am SSW 14 21 - - - - - - - 19.6 1017.8 0.0
11/08:30am SW 15 21 - - - - - - - 19.1 1017.7 0.0
11/08:00am SW 12 17 - - - - - - - 18.2 1017.6 0.0
11/07:30am SW 13 17 - - - - - - - 17.4 1017.3 0.0
11/07:00am SW 14 19 - - - - - - - 17.2 1016.9 0.0
11/06:30am SW 16 20 - - - - - - - 16.8 1016.4 0.0
11/06:00am SW 16 20 - - - - - - - 16.6 1016.2 0.0
11/05:30am WSW 15 19 - - - - - - - 16.4 1015.9 0.0
11/05:00am SW 17 22 - - - - - - - 16.4 1015.6 0.0
11/04:30am SW 17 21 - - - - - - - 16.7 1015.4 0.0
11/04:00am SW 17 20 - - - - - - - 16.8 1015.1 0.0
11/03:30am SW 17 20 - - - - - - - 16.9 1014.9 0.0
11/03:00am SW 16 20 - - - - - - - 16.9 1015.0 0.0
11/02:30am SW 17 21 - - - - - - - 17.1 1015.0 0.0
11/02:00am SW 16 20 - - - - - - - 17.2 1015.3 0.0
11/01:30am WSW 16 21 - - - - - - - 17.4 1015.5 0.0
11/01:00am WSW 13 17 - - - - - - - 17.9 1015.6 0.0
11/12:30am SW 14 20 - - - - - - - 19.2 1015.7 0.0
11/12:02am SSW 17 27 - - - - - - - 20.4 1015.5 0.0
11/12:00am SSW 17 25 - - - - - - - 20.2 1015.5 0.0
 
Date/Time
EST
Wind Sea
Height
m
Swell Vis
km
Cloud Weather Temp
°C
Press
MSL
hPa
Rain since
9am
mm
Dir  Spd
kts
Gust
kts
Height
m
Period
s
Dir
10/11:51pm SSW 20 30 - - - - - - - 20.1 1015.6 0.0
10/11:30pm SSW 23 32 - - - - - - - 20.7 1015.4 0.0
10/11:00pm SSW 24 36 - - - - - - - 20.6 1015.2 0.0
10/10:57pm SSW 26 36 - - - - - - - 20.8 1015.2 0.0
10/10:30pm SSW 26 33 - - - - - - - 20.9 1014.9 0.0
10/10:00pm SSW 30 36 - - - - - - - 21.3 1014.9 0.0
10/09:30pm S 29 36 - - - - - - - 21.3 1014.7 0.0
10/09:00pm S 30 35 - - - - - - - 21.6 1014.3 0.0
10/08:30pm S 27 33 - - - - - - - 21.9 1014.0 0.0
10/08:00pm S 27 33 - - - - - - - 22.0 1013.5 0.0
10/07:30pm S 26 32 - - - - - - - 22.1 1013.0 0.0
10/07:00pm S 29 34 - - - - - - - 22.4 1012.3 0.0

Other formats

Comma delimited format used in spreadsheet applications
http://www.bom.gov.au/fwo/IDN60701/IDN60701.94599.axf

JavaScript Object Notation format (JSON) in row-major order
http://www.bom.gov.au/fwo/IDN60701/IDN60701.94599.json

Data quality

Most of these data are generated automatically and are frequently updated. Quality checks on data are not normally performed. It is possible for incorrect values to appear. Refer to information at About Latest Weather Observations and please check the disclaimer before using these data.